createdAt,value
2022-12-28T00:00:25.934Z,98914.53
2022-12-28T00:02:55.953Z,98916.63
2022-12-28T00:05:26.380Z,98912.66
2022-12-28T00:07:56.348Z,98916.25
2022-12-28T00:11:08.344Z,98907.19
2022-12-28T00:13:18.929Z,98901.34
2022-12-28T00:15:48.929Z,98893.84
2022-12-28T00:18:19.200Z,98897.69
2022-12-28T00:21:00.030Z,98889.56
2022-12-28T00:23:30.973Z,98884.19
2022-12-28T00:26:13.868Z,98882.59
2022-12-28T00:28:44.179Z,98877.59
2022-12-28T00:31:14.544Z,98882.59
2022-12-28T00:33:45.012Z,98877.94
2022-12-28T00:36:17.883Z,98879.34
2022-12-28T00:38:48.318Z,98885.16
2022-12-28T00:41:21.046Z,98875.50
2022-12-28T00:43:51.127Z,98876.09
2022-12-28T00:46:21.288Z,98871.97
2022-12-28T00:48:51.286Z,98882.94
2022-12-28T00:51:23.799Z,98868.53
2022-12-28T00:53:54.032Z,98868.34
2022-12-28T00:56:26.795Z,98871.97
2022-12-28T00:59:01.880Z,98869.38
2022-12-28T01:01:32.916Z,98865.25
2022-12-28T01:04:03.422Z,98858.72
2022-12-28T01:06:33.631Z,98855.63
2022-12-28T01:09:03.850Z,98855.75
2022-12-28T01:11:36.676Z,98858.06
2022-12-28T01:14:06.764Z,98852.94
2022-12-28T01:16:39.439Z,98852.06
2022-12-28T01:19:13.821Z,98845.16
2022-12-28T01:21:44.587Z,98834.75
2022-12-28T01:24:14.637Z,98836.97
2022-12-28T01:26:47.290Z,98829.53
2022-12-28T01:29:17.291Z,98825.53
2022-12-28T01:31:47.376Z,98825.94
2022-12-28T01:34:17.466Z,98831.66
2022-12-28T01:36:49.895Z,98826.16
2022-12-28T01:39:19.956Z,98824.13
2022-12-28T01:41:52.640Z,98820.63
2022-12-28T01:44:48.990Z,98820.56
2022-12-28T01:47:24.946Z,98820.94
2022-12-28T01:50:02.960Z,98815.13
2022-12-28T01:52:41.975Z,98801.53
2022-12-28T01:55:17.514Z,98801.53
2022-12-28T01:57:57.047Z,98799.72
2022-12-28T02:00:27.168Z,98793.09
2022-12-28T02:03:02.976Z,98790.22
2022-12-28T02:05:40.757Z,98776.88
2022-12-28T02:08:18.380Z,98778.28
2022-12-28T02:10:50.429Z,98778.78
2022-12-28T02:13:26.703Z,98762.47
2022-12-28T02:16:00.935Z,98765.84
2022-12-28T02:18:31.321Z,98766.34
2022-12-28T02:21:23.532Z,98750.63
2022-12-28T02:24:43.451Z,98750.50
2022-12-28T02:27:26.540Z,98759.31
2022-12-28T02:30:08.096Z,98756.47
2022-12-28T02:32:58.104Z,98758.44
2022-12-28T02:35:41.622Z,98757.81
2022-12-28T02:38:24.608Z,98744.75
2022-12-28T02:41:02.789Z,98742.97
2022-12-28T02:43:35.476Z,98736.13
2022-12-28T02:46:34.454Z,98733.56
2022-12-28T02:49:31.325Z,98722.63
2022-12-28T02:52:16.913Z,98727.00
2022-12-28T02:55:40.871Z,98723.38
2022-12-28T02:58:44.792Z,98714.72
2022-12-28T03:01:38.941Z,98704.94
2022-12-28T03:04:21.025Z,98709.56
2022-12-28T03:07:17.555Z,98715.13
2022-12-28T03:09:55.193Z,98696.13
2022-12-28T03:12:32.511Z,98686.28
2022-12-28T03:15:12.352Z,98686.91
2022-12-28T03:17:59.681Z,98679.59
2022-12-28T03:20:47.180Z,98682.53
2022-12-28T03:23:35.212Z,98675.03
2022-12-28T03:26:24.407Z,98671.72
2022-12-28T03:29:10.118Z,98670.28
2022-12-28T03:31:44.502Z,98676.66
2022-12-28T03:34:20.323Z,98663.00
2022-12-28T03:37:02.382Z,98665.22
2022-12-28T03:39:45.615Z,98658.28
2022-12-28T03:42:34.227Z,98666.63
2022-12-28T03:45:15.005Z,98663.06
2022-12-28T03:48:08.686Z,98665.03
2022-12-28T03:50:45.744Z,98656.94
2022-12-28T03:53:19.432Z,98668.66
2022-12-28T03:55:49.583Z,98653.75
2022-12-28T03:58:24.642Z,98663.13
2022-12-28T04:00:55.765Z,98651.25
2022-12-28T04:03:26.273Z,98655.31
2022-12-28T04:05:58.910Z,98649.63
2022-12-28T04:08:29.014Z,98637.69
2022-12-28T04:11:01.893Z,98628.78
2022-12-28T04:13:33.440Z,98626.06
2022-12-28T04:16:13.718Z,98622.53
2022-12-28T04:18:45.689Z,98625.03
2022-12-28T04:21:19.291Z,98624.38
2022-12-28T04:23:49.927Z,98622.50
2022-12-28T04:26:23.579Z,98623.34
2022-12-28T04:29:00.787Z,98623.75
2022-12-28T04:31:49.942Z,98626.84
2022-12-28T04:34:22.704Z,98611.81
2022-12-28T04:37:03.263Z,98606.34
2022-12-28T04:39:54.298Z,98588.84
2022-12-28T04:42:23.175Z,98594.47
2022-12-28T04:44:53.216Z,98598.66
2022-12-28T04:47:23.327Z,98602.19
2022-12-28T04:49:53.300Z,98595.78
2022-12-28T04:52:25.826Z,98596.72
2022-12-28T04:54:55.747Z,98596.47
2022-12-28T04:57:25.682Z,98593.84
2022-12-28T04:59:55.632Z,98597.06
2022-12-28T05:02:25.665Z,98605.38
2022-12-28T05:04:55.692Z,98607.81
2022-12-28T05:07:28.238Z,98602.88
2022-12-28T05:09:58.250Z,98600.59
2022-12-28T05:12:28.507Z,98595.81
2022-12-28T05:14:58.476Z,98590.72
2022-12-28T05:17:28.445Z,98585.09
2022-12-28T05:19:58.402Z,98587.97
2022-12-28T05:22:33.145Z,98588.78
2022-12-28T05:25:06.965Z,98589.91
2022-12-28T05:27:37.905Z,98593.09
2022-12-28T05:30:10.396Z,98596.78
2022-12-28T05:32:40.427Z,98593.56
2022-12-28T05:35:12.556Z,98589.91
2022-12-28T05:37:45.143Z,98586.50
2022-12-28T05:40:15.372Z,98587.06
2022-12-28T05:42:51.114Z,98588.66
2022-12-28T05:45:21.658Z,98591.97
2022-12-28T05:47:51.638Z,98586.81
2022-12-28T05:50:21.570Z,98594.13
2022-12-28T05:52:54.094Z,98587.75
2022-12-28T05:55:24.756Z,98584.53
2022-12-28T05:57:57.022Z,98586.47
2022-12-28T06:00:26.976Z,98584.41
2022-12-28T06:02:58.407Z,98574.75
2022-12-28T06:05:28.451Z,98583.06
2022-12-28T06:08:01.189Z,98580.56
2022-12-28T06:10:31.240Z,98581.47
2022-12-28T06:13:01.153Z,98575.63
2022-12-28T06:15:31.142Z,98565.22
2022-12-28T06:18:01.076Z,98565.59
2022-12-28T06:20:31.058Z,98562.03
2022-12-28T06:23:03.825Z,98567.03
2022-12-28T06:25:33.732Z,98557.88
2022-12-28T06:28:03.683Z,98556.06
2022-12-28T06:30:33.639Z,98549.75
2022-12-28T06:33:03.549Z,98553.50
2022-12-28T06:35:33.533Z,98546.41
2022-12-28T06:38:06.135Z,98554.16
2022-12-28T06:41:10.882Z,98549.19
2022-12-28T06:43:26.029Z,98546.75
2022-12-28T06:45:59.644Z,98552.88
2022-12-28T06:48:29.907Z,98551.94
2022-12-28T06:51:01.615Z,98549.84
2022-12-28T06:53:37.163Z,98541.06
2022-12-28T06:56:10.533Z,98549.28
2022-12-28T06:58:41.125Z,98542.69
2022-12-28T07:01:13.646Z,98547.13
2022-12-28T07:03:43.922Z,98539.78
2022-12-28T07:06:16.585Z,98531.59
2022-12-28T07:08:50.487Z,98537.81
2022-12-28T07:11:23.367Z,98541.09
2022-12-28T07:13:53.309Z,98536.16
2022-12-28T07:16:25.247Z,98536.16
2022-12-28T07:18:55.485Z,98532.41
2022-12-28T07:21:28.414Z,98539.59
2022-12-28T07:24:01.686Z,98536.53
2022-12-28T07:26:34.953Z,98534.88
2022-12-28T07:29:09.060Z,98524.38
2022-12-28T07:31:45.843Z,98522.06
2022-12-28T07:34:18.703Z,98518.34
2022-12-28T07:36:48.624Z,98514.75
2022-12-28T07:39:21.147Z,98516.09
2022-12-28T07:41:51.279Z,98519.44
2022-12-28T07:44:29.438Z,98513.03
2022-12-28T07:46:59.916Z,98515.94
2022-12-28T07:49:29.969Z,98519.38
2022-12-28T07:51:59.912Z,98510.66
2022-12-28T07:54:32.598Z,98510.88
2022-12-28T07:57:02.528Z,98508.63
2022-12-28T07:59:32.522Z,98513.53
2022-12-28T08:02:02.774Z,98504.81
2022-12-28T08:04:32.839Z,98501.47
2022-12-28T08:07:02.790Z,98501.81
2022-12-28T08:09:35.575Z,98515.09
2022-12-28T08:12:05.639Z,98511.59
2022-12-28T08:14:35.591Z,98509.66
2022-12-28T08:17:05.543Z,98503.09
2022-12-28T08:19:36.066Z,98506.56
2022-12-28T08:22:08.803Z,98509.72
2022-12-28T08:24:41.338Z,98505.53
2022-12-28T08:27:12.089Z,98497.91
2022-12-28T08:29:42.260Z,98498.16
2022-12-28T08:32:12.219Z,98487.56
2022-12-28T08:34:42.194Z,98489.69
2022-12-28T08:37:12.208Z,98486.38
2022-12-28T08:39:44.705Z,98487.81
2022-12-28T08:42:14.767Z,98486.72
2022-12-28T08:44:44.714Z,98485.16
2022-12-28T08:47:14.750Z,98480.06
2022-12-28T08:49:44.720Z,98487.47
2022-12-28T08:52:14.690Z,98487.88
2022-12-28T08:54:47.211Z,98492.56
2022-12-28T08:57:17.179Z,98490.34
2022-12-28T08:59:47.145Z,98495.69
2022-12-28T09:02:17.256Z,98491.03
2022-12-28T09:04:47.622Z,98485.75
2022-12-28T09:07:17.575Z,98485.75
2022-12-28T09:09:50.146Z,98489.25
2022-12-28T09:12:20.095Z,98487.53
2022-12-28T09:14:50.174Z,98488.19
2022-12-28T09:17:20.227Z,98489.63
2022-12-28T09:19:50.210Z,98491.63
2022-12-28T09:22:20.174Z,98496.59
2022-12-28T09:24:52.771Z,98491.84
2022-12-28T09:27:22.712Z,98489.13
2022-12-28T09:29:52.686Z,98483.34
2022-12-28T09:32:22.672Z,98488.91
2022-12-28T09:34:52.627Z,98481.97
2022-12-28T09:37:22.617Z,98477.81
2022-12-28T09:40:01.006Z,98470.25
2022-12-28T09:42:33.496Z,98469.44
2022-12-28T09:45:08.514Z,98478.50
2022-12-28T09:47:46.303Z,98472.63
2022-12-28T09:50:35.155Z,98457.56
2022-12-28T09:53:24.607Z,98461.69
2022-12-28T09:56:05.721Z,98459.16
2022-12-28T09:58:46.464Z,98453.00
2022-12-28T10:01:21.321Z,98454.88
2022-12-28T10:03:52.033Z,98450.06
2022-12-28T10:06:28.397Z,98450.19
2022-12-28T10:09:03.049Z,98442.25
2022-12-28T10:11:41.116Z,98433.59
2022-12-28T10:14:22.682Z,98431.66
2022-12-28T10:16:52.775Z,98433.25
2022-12-28T10:19:27.742Z,98426.66
2022-12-28T10:22:03.884Z,98426.09
2022-12-28T10:24:34.937Z,98422.06
2022-12-28T10:27:10.770Z,98415.38
2022-12-28T10:29:40.939Z,98414.50
2022-12-28T10:32:12.817Z,98413.84
2022-12-28T10:34:58.977Z,98407.94
2022-12-28T10:37:33.592Z,98401.03
2022-12-28T10:40:09.531Z,98399.91
2022-12-28T10:42:46.646Z,98396.38
2022-12-28T10:45:23.281Z,98389.69
2022-12-28T10:47:56.359Z,98383.00
2022-12-28T10:50:54.436Z,98383.38
2022-12-28T10:53:32.949Z,98374.91
2022-12-28T10:56:22.218Z,98368.38
2022-12-28T10:58:57.211Z,98375.28
2022-12-28T11:01:31.130Z,98365.66
2022-12-28T11:04:07.113Z,98364.25
2022-12-28T11:06:39.540Z,98363.28
2022-12-28T11:09:19.668Z,98358.00
2022-12-28T11:11:52.399Z,98358.38
2022-12-28T11:14:34.646Z,98359.28
2022-12-28T11:17:18.482Z,98349.84
2022-12-28T11:19:51.582Z,98348.78
2022-12-28T11:22:29.018Z,98344.06
2022-12-28T11:25:02.831Z,98346.59
2022-12-28T11:27:32.883Z,98338.44
2022-12-28T11:30:09.080Z,98332.41
2022-12-28T11:32:51.717Z,98327.66
2022-12-28T11:35:25.509Z,98326.88
2022-12-28T11:37:59.272Z,98319.91
2022-12-28T11:40:55.295Z,98321.22
2022-12-28T11:43:53.879Z,98308.72
2022-12-28T11:47:01.799Z,98310.44
2022-12-28T11:49:36.181Z,98305.09
2022-12-28T11:52:47.180Z,98300.38
2022-12-28T11:55:49.187Z,98299.53
2022-12-28T11:59:08.744Z,98288.06
2022-12-28T12:01:50.951Z,98282.16
2022-12-28T12:04:46.706Z,98288.69
2022-12-28T12:07:48.690Z,98279.47
2022-12-28T12:10:39.050Z,98276.88
2022-12-28T12:13:44.731Z,98273.56
2022-12-28T12:16:29.181Z,98262.03
2022-12-28T12:19:04.046Z,98258.53
2022-12-28T12:21:39.489Z,98258.84
2022-12-28T12:24:28.154Z,98254.59
2022-12-28T12:27:11.883Z,98244.47
2022-12-28T12:29:46.960Z,98250.06
2022-12-28T12:32:26.659Z,98245.06
2022-12-28T12:35:06.856Z,98239.75
2022-12-28T12:37:48.867Z,98235.34
2022-12-28T12:40:53.444Z,98231.22
2022-12-28T12:43:40.428Z,98223.22
2022-12-28T12:47:05.694Z,98222.13
2022-12-28T12:49:55.102Z,98222.38
2022-12-28T12:52:43.393Z,98206.81
2022-12-28T12:55:31.457Z,98209.38
2022-12-28T12:58:11.932Z,98200.50
2022-12-28T13:00:55.708Z,98199.47
2022-12-28T13:03:41.518Z,98198.72
2022-12-28T13:06:15.870Z,98190.09
2022-12-28T13:08:54.547Z,98189.47
2022-12-28T13:11:26.481Z,98180.25
2022-12-28T13:13:57.792Z,98177.00
2022-12-28T13:16:32.705Z,98179.34
2022-12-28T13:19:05.676Z,98181.91
2022-12-28T13:21:45.801Z,98182.50
2022-12-28T13:24:28.034Z,98174.66
2022-12-28T13:26:59.944Z,98176.63
2022-12-28T13:29:35.940Z,98171.66
2022-12-28T13:32:06.009Z,98166.59
2022-12-28T13:34:38.652Z,98171.06
2022-12-28T13:37:19.075Z,98171.69
2022-12-28T13:39:52.202Z,98161.91
2022-12-28T13:42:31.483Z,98163.91
2022-12-28T13:45:05.767Z,98156.41
2022-12-28T13:47:42.414Z,98157.00
2022-12-28T13:50:19.017Z,98158.28
2022-12-28T13:52:54.789Z,98151.19
2022-12-28T13:55:34.746Z,98152.72
2022-12-28T13:58:11.563Z,98153.59
2022-12-28T14:00:46.812Z,98148.72
2022-12-28T14:03:19.146Z,98158.47
2022-12-28T14:05:55.108Z,98155.44
2022-12-28T14:08:26.099Z,98150.44
2022-12-28T14:10:59.307Z,98151.09
2022-12-28T14:13:29.995Z,98152.94
2022-12-28T14:16:00.590Z,98146.50
2022-12-28T14:18:31.527Z,98148.63
2022-12-28T14:21:04.059Z,98146.78
2022-12-28T14:23:36.663Z,98146.69
2022-12-28T14:26:13.204Z,98138.13
2022-12-28T14:28:48.403Z,98136.53
2022-12-28T14:31:29.599Z,98129.50
2022-12-28T14:34:03.520Z,98125.56
2022-12-28T14:36:36.690Z,98122.97
2022-12-28T14:39:07.760Z,98123.53
2022-12-28T14:41:48.288Z,98120.06
2022-12-28T14:44:25.252Z,98111.38
2022-12-28T14:46:55.908Z,98119.19
2022-12-28T14:49:40.081Z,98119.53
2022-12-28T14:52:37.395Z,98106.91
2022-12-28T14:55:28.980Z,98108.50
2022-12-28T14:58:07.508Z,98102.47
2022-12-28T15:00:39.790Z,98101.75
2022-12-28T15:03:23.845Z,98096.84
2022-12-28T15:05:55.933Z,98088.50
2022-12-28T15:08:27.387Z,98085.16
2022-12-28T15:11:00.550Z,98081.41
2022-12-28T15:13:33.190Z,98092.91
2022-12-28T15:16:06.230Z,98100.69
2022-12-28T15:18:37.691Z,98090.19
2022-12-28T15:21:08.975Z,98093.56
2022-12-28T15:23:39.002Z,98083.53
2022-12-28T15:26:10.849Z,98082.31
2022-12-28T15:28:44.689Z,98090.41
2022-12-28T15:31:17.825Z,98088.38
2022-12-28T15:33:49.187Z,98074.00
2022-12-28T15:36:22.041Z,98078.47
2022-12-28T15:38:52.681Z,98068.72
2022-12-28T15:41:35.173Z,98072.72
2022-12-28T15:44:08.732Z,98072.44
2022-12-28T15:46:38.840Z,98071.88
2022-12-28T15:49:10.871Z,98074.56
2022-12-28T15:51:41.815Z,98071.72
2022-12-28T15:54:11.829Z,98070.16
2022-12-28T15:56:44.392Z,98067.66
2022-12-28T15:59:17.863Z,98064.81
2022-12-28T16:01:48.963Z,98068.63
2022-12-28T16:04:19.465Z,98066.38
2022-12-28T16:06:49.470Z,98060.69
2022-12-28T16:09:19.446Z,98065.44
2022-12-28T16:11:54.830Z,98070.34
2022-12-28T16:14:27.884Z,98070.00
2022-12-28T16:16:58.017Z,98070.78
2022-12-28T16:19:28.853Z,98064.81
2022-12-28T16:21:58.857Z,98061.31
2022-12-28T16:24:29.717Z,98055.00
2022-12-28T16:27:00.058Z,98055.66
2022-12-28T16:29:32.650Z,98057.22
2022-12-28T16:32:04.188Z,98049.94
2022-12-28T16:34:34.350Z,98053.41
2022-12-28T16:37:04.290Z,98049.31
2022-12-28T16:39:34.762Z,98046.66
2022-12-28T16:42:04.824Z,98044.72
2022-12-28T16:44:37.497Z,98035.91
2022-12-28T16:47:11.331Z,98040.47
2022-12-28T16:49:43.013Z,98025.28
2022-12-28T16:52:13.038Z,98022.63
2022-12-28T16:54:43.033Z,98022.31
2022-12-28T16:57:13.122Z,98023.09
2022-12-28T16:59:45.641Z,98026.25
2022-12-28T17:02:17.260Z,98020.56
2022-12-28T17:04:47.350Z,98021.81
2022-12-28T17:07:17.281Z,98017.41
2022-12-28T17:09:50.315Z,98024.34
2022-12-28T17:12:20.534Z,98018.03
2022-12-28T17:14:53.334Z,98021.66
2022-12-28T17:17:23.274Z,98024.66
2022-12-28T17:19:53.293Z,98028.75
2022-12-28T17:22:23.249Z,98018.34
2022-12-28T17:24:53.245Z,98018.47
2022-12-28T17:27:23.830Z,98018.34
2022-12-28T17:29:56.448Z,98022.44
2022-12-28T17:32:26.411Z,98013.91
2022-12-28T17:34:56.436Z,98017.06
2022-12-28T17:37:26.426Z,98020.34
2022-12-28T17:39:56.379Z,98009.00
2022-12-28T17:42:26.369Z,98006.31
2022-12-28T17:44:59.012Z,97997.81
2022-12-28T17:47:29.218Z,97989.75
2022-12-28T17:49:59.209Z,97999.84
2022-12-28T17:52:30.166Z,98000.31
2022-12-28T17:55:00.206Z,97993.53
2022-12-28T17:57:35.355Z,97987.38
2022-12-28T18:00:13.780Z,97979.47
2022-12-28T18:02:44.386Z,97981.03
2022-12-28T18:05:14.674Z,97968.72
2022-12-28T18:07:44.669Z,97961.00
2022-12-28T18:10:14.628Z,97964.00
2022-12-28T18:12:44.524Z,97961.47
2022-12-28T18:15:17.516Z,97953.88
2022-12-28T18:17:47.473Z,97956.72
2022-12-28T18:20:18.758Z,97946.31
2022-12-28T18:22:48.769Z,97950.13
2022-12-28T18:25:19.090Z,97950.44
2022-12-28T18:27:49.132Z,97944.41
2022-12-28T18:30:21.709Z,97931.16
2022-12-28T18:32:51.656Z,97931.16
2022-12-28T18:35:24.936Z,97936.38
2022-12-28T18:37:55.309Z,97925.50
2022-12-28T18:40:25.370Z,97931.78
2022-12-28T18:42:55.451Z,97928.00
2022-12-28T18:45:28.017Z,97917.59
2022-12-28T18:47:58.089Z,97921.03
2022-12-28T18:50:28.262Z,97918.50
2022-12-28T18:52:58.300Z,97914.06
2022-12-28T18:55:28.360Z,97908.88
2022-12-28T18:57:58.410Z,97902.88
2022-12-28T19:00:31.194Z,97897.34
2022-12-28T19:03:01.308Z,97902.72
2022-12-28T19:05:31.348Z,97889.75
2022-12-28T19:08:01.292Z,97890.72
2022-12-28T19:10:31.261Z,97883.13
2022-12-28T19:13:01.216Z,97887.06
2022-12-28T19:15:33.968Z,97893.63
2022-12-28T19:18:04.048Z,97883.06
2022-12-28T19:20:34.040Z,97882.25
2022-12-28T19:23:04.004Z,97881.75
2022-12-28T19:25:34.116Z,97878.41
2022-12-28T19:28:04.139Z,97868.31
2022-12-28T19:30:37.004Z,97875.25
2022-12-28T19:33:07.089Z,97872.81
2022-12-28T19:35:37.080Z,97867.16
2022-12-28T19:38:07.079Z,97867.81
2022-12-28T19:40:37.068Z,97857.88
2022-12-28T19:43:07.102Z,97854.53
2022-12-28T19:45:39.606Z,97862.75
2022-12-28T19:48:09.727Z,97859.91
2022-12-28T19:50:39.709Z,97864.34
2022-12-28T19:53:09.733Z,97858.69
2022-12-28T19:55:39.864Z,97841.66
2022-12-28T19:58:09.848Z,97846.53
2022-12-28T20:00:42.853Z,97850.19
2022-12-28T20:03:13.305Z,97849.53
2022-12-28T20:05:44.237Z,97843.56
2022-12-28T20:08:14.556Z,97836.56
2022-12-28T20:10:44.635Z,97849.06
2022-12-28T20:13:15.039Z,97841.50
2022-12-28T20:15:47.684Z,97844.63
2022-12-28T20:18:17.710Z,97841.91
2022-12-28T20:21:17.915Z,97836.25
2022-12-28T20:23:39.211Z,97830.59
2022-12-28T20:26:10.476Z,97833.41
2022-12-28T20:28:40.702Z,97840.81
2022-12-28T20:31:17.197Z,97838.16
2022-12-28T20:33:48.345Z,97838.94
2022-12-28T20:36:22.136Z,97830.56
2022-12-28T20:38:53.138Z,97830.59
2022-12-28T20:41:43.846Z,97836.56
2022-12-28T20:44:16.998Z,97831.50
2022-12-28T20:46:49.607Z,97829.31
2022-12-28T20:49:19.654Z,97825.56
2022-12-28T20:51:49.918Z,97827.75
2022-12-28T20:54:19.926Z,97823.06
2022-12-28T20:56:54.789Z,97818.38
2022-12-28T20:59:26.983Z,97817.13
2022-12-28T21:01:59.651Z,97816.50
2022-12-28T21:04:30.004Z,97823.47
2022-12-28T21:07:00.383Z,97824.25
2022-12-28T21:09:30.304Z,97821.88
2022-12-28T21:12:00.271Z,97816.72
2022-12-28T21:14:30.187Z,97818.59
2022-12-28T21:17:02.756Z,97802.47
2022-12-28T21:19:32.685Z,97808.34
2022-12-28T21:22:03.107Z,97801.06
2022-12-28T21:24:33.757Z,97796.66
2022-12-28T21:27:04.244Z,97791.31
2022-12-28T21:29:34.319Z,97793.34
2022-12-28T21:32:09.429Z,97786.25
2022-12-28T21:34:39.431Z,97783.75
2022-12-28T21:37:21.803Z,97787.69
2022-12-28T21:39:51.880Z,97780.59
2022-12-28T21:42:21.865Z,97776.97
2022-12-28T21:44:52.130Z,97769.25
2022-12-28T21:47:24.703Z,97770.22
2022-12-28T21:49:55.443Z,97767.69
2022-12-28T21:52:25.756Z,97766.78
2022-12-28T21:54:55.690Z,97768.03
2022-12-28T21:57:25.718Z,97763.28
2022-12-28T21:59:55.809Z,97764.69
2022-12-28T22:02:56.075Z,97760.66
2022-12-28T22:05:38.719Z,97754.78
2022-12-28T22:08:21.038Z,97757.75
2022-12-28T22:11:04.479Z,97763.38
2022-12-28T22:13:34.422Z,97762.41
2022-12-28T22:16:04.512Z,97760.16
2022-12-28T22:19:00.903Z,97760.31
2022-12-28T22:21:27.680Z,97768.00
2022-12-28T22:23:58.133Z,97755.03
2022-12-28T22:26:28.223Z,97754.34
2022-12-28T22:28:58.141Z,97755.13
2022-12-28T22:31:28.122Z,97754.19
2022-12-28T22:34:06.795Z,97749.84
2022-12-28T22:36:37.418Z,97757.44
2022-12-28T22:39:07.470Z,97745.56
2022-12-28T22:41:37.510Z,97744.34
2022-12-28T22:44:07.963Z,97735.91
2022-12-28T22:46:37.925Z,97742.16
2022-12-28T22:49:10.459Z,97745.03
2022-12-28T22:51:40.983Z,97737.38
2022-12-28T22:54:11.298Z,97737.19
2022-12-28T22:56:41.295Z,97735.69
2022-12-28T22:59:15.495Z,97740.47
2022-12-28T23:01:48.280Z,97734.28
2022-12-28T23:04:21.573Z,97729.91
2022-12-28T23:06:51.534Z,97731.69
2022-12-28T23:09:21.544Z,97723.22
2022-12-28T23:11:52.334Z,97730.47
2022-12-28T23:14:42.666Z,97728.72
2022-12-28T23:17:17.249Z,97726.03
2022-12-28T23:20:02.655Z,97729.06
2022-12-28T23:22:48.586Z,97728.63
2022-12-28T23:25:34.556Z,97723.75
2022-12-28T23:28:08.201Z,97726.91
2022-12-28T23:30:40.840Z,97728.63
2022-12-28T23:33:10.996Z,97722.78
2022-12-28T23:35:43.536Z,97720.59
2022-12-28T23:38:14.018Z,97719.03
2022-12-28T23:40:44.607Z,97708.94
2022-12-28T23:43:14.651Z,97707.88
2022-12-28T23:45:44.729Z,97704.03
2022-12-28T23:48:14.972Z,97701.72
2022-12-28T23:50:47.584Z,97699.22
2022-12-28T23:53:17.752Z,97686.84
2022-12-28T23:55:47.763Z,97681.88
2022-12-28T23:58:17.794Z,97686.97
